Time;durP1;ratioP1;P1;durP2;ratioP2;P2;SDS_P1;SDS_P2;PMS_P1;PMS_P2;Temp;Humidity;BMP_temperature;BMP_pressure;BME280_temperature;BME280_humidity;BME280_pressure;Samples;Min_cycle;Max_cycle;Signal;HPM_P1;HPM_P2
2021/08/20 00:00:00;;;;;;;25.10;20.35;;;15.10;99.90;;;;;;5050903;28;20742;-54
2021/08/20 00:02:31;;;;;;;25.63;19.88;;;15.10;99.90;;;;;;5087712;28;20048;-53
2021/08/20 00:04:57;;;;;;;28.10;20.85;;;15.10;99.90;;;;;;5087907;28;20389;-55
2021/08/20 00:07:24;;;;;;;27.67;21.38;;;15.10;99.90;;;;;;5069819;28;20163;-54
2021/08/20 00:09:51;;;;;;;27.90;21.38;;;15.10;99.90;;;;;;5087865;28;20044;-54
2021/08/20 00:12:18;;;;;;;30.42;22.05;;;15.10;99.90;;;;;;5085772;28;20048;-54
2021/08/20 00:14:44;;;;;;;30.40;22.60;;;15.10;99.90;;;;;;5073326;28;20048;-54
2021/08/20 00:17:11;;;;;;;28.75;23.63;;;15.10;99.90;;;;;;5087813;28;20048;-55
2021/08/20 00:19:37;;;;;;;35.28;24.25;;;15.00;99.90;;;;;;5089466;28;20044;-54
2021/08/20 00:22:07;;;;;;;29.55;23.00;;;15.10;99.90;;;;;;5087542;28;20056;-56
2021/08/20 00:24:35;;;;;;;31.73;23.42;;;15.10;99.90;;;;;;5088033;28;20147;-55
2021/08/20 00:27:11;;;;;;;31.30;24.42;;;15.10;99.90;;;;;;5087471;28;20052;-55
2021/08/20 00:29:37;;;;;;;30.67;23.95;;;15.10;99.90;;;;;;5088575;28;20055;-52
2021/08/20 00:32:04;;;;;;;31.92;23.75;;;15.10;99.90;;;;;;5088145;28;20082;-55
2021/08/20 00:34:30;;;;;;;31.27;23.67;;;15.10;99.90;;;;;;5088052;28;20050;-53
2021/08/20 00:36:56;;;;;;;31.75;25.05;;;15.10;99.90;;;;;;5091911;28;20036;-53
2021/08/20 00:39:24;;;;;;;33.72;24.48;;;15.20;99.90;;;;;;5088191;28;20055;-55
2021/08/20 00:41:50;;;;;;;32.03;24.85;;;15.10;99.90;;;;;;5070051;28;20048;-55
2021/08/20 00:44:18;;;;;;;35.05;27.73;;;15.10;99.90;;;;;;5088101;28;20198;-55
2021/08/20 00:46:45;;;;;;;42.33;29.13;;;15.10;99.90;;;;;;5051272;28;20052;-55
2021/08/20 00:49:12;;;;;;;41.03;29.83;;;15.10;99.90;;;;;;5088185;28;20048;-55
2021/08/20 00:51:39;;;;;;;38.17;28.50;;;15.10;99.90;;;;;;5088074;28;20119;-55
2021/08/20 00:54:09;;;;;;;38.55;29.17;;;15.00;99.90;;;;;;5069974;28;20044;-55
2021/08/20 00:56:38;;;;;;;43.50;31.63;;;15.00;99.90;;;;;;5088286;28;20048;-55
2021/08/20 00:59:04;;;;;;;42.90;29.85;;;15.00;99.90;;;;;;5089699;28;20075;-54
2021/08/20 01:01:32;;;;;;;36.65;28.35;;;15.00;99.90;;;;;;5086847;28;20055;-55
2021/08/20 01:03:58;;;;;;;48.08;34.03;;;14.90;99.90;;;;;;5088183;28;20075;-54
2021/08/20 01:06:32;;;;;;;42.58;31.88;;;14.90;99.90;;;;;;5069432;28;20060;-56
2021/08/20 01:09:01;;;;;;;49.13;34.13;;;14.90;99.90;;;;;;5057470;28;20052;-55
2021/08/20 01:11:28;;;;;;;47.13;35.13;;;14.90;99.90;;;;;;5070426;28;20059;-54
2021/08/20 01:13:55;;;;;;;49.75;32.63;;;14.90;99.90;;;;;;5072934;28;20040;-54
2021/08/20 01:16:21;;;;;;;49.55;35.42;;;14.80;99.90;;;;;;5091424;28;20083;-55
2021/08/20 01:18:50;;;;;;;53.35;35.38;;;14.80;99.90;;;;;;5069669;28;20052;-54
2021/08/20 01:21:20;;;;;;;53.40;34.45;;;14.80;99.90;;;;;;5090355;28;20143;-55
2021/08/20 01:23:49;;;;;;;53.20;35.75;;;14.70;99.90;;;;;;5090695;28;20051;-56
2021/08/20 01:26:15;;;;;;;51.25;36.25;;;14.60;99.90;;;;;;5072802;28;20139;-54
2021/08/20 01:28:42;;;;;;;51.60;37.08;;;14.60;99.90;;;;;;5073439;28;20143;-55
2021/08/20 01:31:14;;;;;;;53.63;36.55;;;14.50;99.90;;;;;;5068990;28;20101;-56
2021/08/20 01:33:41;;;;;;;53.60;36.65;;;14.50;99.90;;;;;;5057857;28;20055;-55
2021/08/20 01:36:10;;;;;;;53.30;38.13;;;14.50;99.90;;;;;;5072503;28;20408;-56
2021/08/20 01:38:54;;;;;;;55.25;39.67;;;14.50;99.90;;;;;;5072252;28;20059;-55
2021/08/20 01:41:24;;;;;;;51.85;37.22;;;14.40;99.90;;;;;;5090211;28;20071;-55
2021/08/20 01:43:51;;;;;;;58.75;39.80;;;14.40;99.90;;;;;;5071800;28;20051;-55
2021/08/20 01:46:18;;;;;;;63.65;42.10;;;14.30;99.90;;;;;;5090832;28;20051;-55
2021/08/20 01:48:51;;;;;;;57.03;38.40;;;14.30;99.90;;;;;;5070937;28;20047;-54
2021/08/20 01:51:18;;;;;;;61.75;40.40;;;14.20;99.90;;;;;;5088498;28;20044;-55
2021/08/20 01:53:46;;;;;;;57.90;41.90;;;14.20;99.90;;;;;;5090715;28;20055;-54
2021/08/20 01:56:26;;;;;;;56.08;40.00;;;14.10;99.90;;;;;;5077367;28;20385;-56
2021/08/20 01:58:57;;;;;;;57.25;39.78;;;14.10;99.90;;;;;;5069706;28;20748;-56
2021/08/20 02:01:24;;;;;;;63.85;42.17;;;14.10;99.90;;;;;;5064345;28;20087;-56
2021/08/20 02:03:51;;;;;;;61.10;43.40;;;14.10;99.90;;;;;;5052439;28;20665;-55
2021/08/20 02:06:17;;;;;;;60.40;42.88;;;14.10;99.90;;;;;;5071536;28;20052;-55
2021/08/20 02:08:45;;;;;;;56.45;41.22;;;14.00;99.90;;;;;;5067965;28;20135;-55
2021/08/20 02:11:12;;;;;;;59.53;42.65;;;14.00;99.90;;;;;;5071677;28;20044;-55
2021/08/20 02:13:45;;;;;;;64.25;43.28;;;14.00;99.90;;;;;;5073658;28;20123;-56
2021/08/20 02:16:12;;;;;;;60.90;44.88;;;14.00;99.90;;;;;;5071660;28;20044;-56
2021/08/20 02:18:39;;;;;;;58.17;42.05;;;14.00;99.90;;;;;;5071795;28;20052;-54
2021/08/20 02:21:05;;;;;;;63.17;44.28;;;14.00;99.90;;;;;;5075755;28;20071;-55
2021/08/20 02:23:34;;;;;;;63.08;44.22;;;14.00;99.90;;;;;;5069697;28;20052;-56
2021/08/20 02:26:05;;;;;;;61.65;44.40;;;14.00;99.90;;;;;;5076101;28;20055;-56
2021/08/20 02:28:33;;;;;;;58.85;46.47;;;13.90;99.90;;;;;;5071544;28;20135;-55
2021/08/20 02:31:01;;;;;;;59.60;45.42;;;14.00;99.90;;;;;;5071478;28;20055;-56
2021/08/20 02:33:33;;;;;;;61.67;43.70;;;14.00;99.90;;;;;;5071240;28;20603;-56
2021/08/20 02:36:02;;;;;;;61.45;43.47;;;13.90;99.90;;;;;;5077016;28;20102;-56
2021/08/20 02:38:28;;;;;;;66.43;45.92;;;14.00;99.90;;;;;;5071200;28;20052;-56
2021/08/20 02:40:54;;;;;;;60.40;43.00;;;13.90;99.90;;;;;;5062381;28;20040;-56
2021/08/20 02:43:21;;;;;;;56.63;43.38;;;13.90;99.90;;;;;;5089650;28;20048;-56
2021/08/20 02:45:47;;;;;;;56.38;42.50;;;13.90;99.90;;;;;;5071389;28;20072;-56
2021/08/20 02:48:13;;;;;;;57.35;44.08;;;13.90;99.90;;;;;;5076519;28;20140;-56
2021/08/20 02:50:39;;;;;;;63.10;46.10;;;13.80;99.90;;;;;;5075673;28;20047;-56
2021/08/20 02:53:05;;;;;;;57.97;44.38;;;13.90;99.90;;;;;;5070426;28;20060;-56
2021/08/20 02:55:33;;;;;;;63.03;44.67;;;13.80;99.90;;;;;;5067712;28;20528;-56
2021/08/20 02:58:00;;;;;;;68.20;46.78;;;13.70;99.90;;;;;;5051342;28;20390;-56
2021/08/20 03:00:32;;;;;;;64.72;45.70;;;13.80;99.90;;;;;;5070127;28;20055;-56
2021/08/20 03:03:01;;;;;;;64.65;46.08;;;13.80;99.90;;;;;;5089260;28;20063;-56
2021/08/20 03:05:27;;;;;;;64.38;44.80;;;13.70;99.90;;;;;;5078508;28;20837;-57
2021/08/20 03:08:13;;;;;;;64.18;45.78;;;13.80;99.90;;;;;;5061574;28;20052;-57
2021/08/20 03:10:42;;;;;;;72.63;48.10;;;13.80;99.90;;;;;;5088637;28;20127;-56
2021/08/20 03:13:08;;;;;;;70.45;47.00;;;13.80;99.90;;;;;;5071096;28;20102;-56
2021/08/20 03:15:35;;;;;;;63.08;46.97;;;13.80;99.90;;;;;;5073545;28;20044;-57
2021/08/20 03:18:01;;;;;;;71.15;46.00;;;13.80;99.90;;;;;;5084856;28;20047;-56
2021/08/20 03:20:30;;;;;;;61.38;46.22;;;13.90;99.90;;;;;;5060854;28;20036;-57
2021/08/20 03:23:00;;;;;;;71.63;48.65;;;13.90;99.90;;;;;;5054327;28;20062;-56
2021/08/20 03:25:28;;;;;;;63.58;47.95;;;13.90;99.90;;;;;;5054067;28;20245;-57
2021/08/20 03:27:55;;;;;;;62.10;46.67;;;13.90;99.90;;;;;;5053429;28;20071;-58
2021/08/20 03:30:36;;;;;;;66.32;46.88;;;13.90;99.90;;;;;;5070005;28;20503;-59
2021/08/20 03:33:05;;;;;;;71.88;47.50;;;13.90;99.90;;;;;;5067846;28;20052;-57
2021/08/20 03:35:33;;;;;;;60.92;46.50;;;13.80;99.90;;;;;;5051273;28;20052;-58
2021/08/20 03:38:00;;;;;;;63.80;47.17;;;13.80;99.90;;;;;;5072334;28;20048;-58
2021/08/20 03:40:31;;;;;;;68.25;46.00;;;13.80;99.90;;;;;;5066969;28;20040;-58
2021/08/20 03:42:59;;;;;;;67.97;48.15;;;13.80;99.90;;;;;;5056264;28;20082;-58
2021/08/20 03:45:43;;;;;;;74.95;47.78;;;13.80;99.90;;;;;;5071147;28;20171;-58
2021/08/20 03:48:23;;;;;;;68.88;47.25;;;13.70;99.90;;;;;;5076637;28;20043;-58
2021/08/20 03:50:49;;;;;;;68.80;46.72;;;13.80;99.90;;;;;;5087839;28;20044;-58
2021/08/20 03:53:15;;;;;;;63.60;45.47;;;13.70;99.90;;;;;;5072917;28;20466;-58
2021/08/20 03:55:42;;;;;;;61.42;47.13;;;13.70;99.90;;;;;;5070549;28;20048;-58
2021/08/20 03:58:31;;;;;;;64.50;46.05;;;13.80;99.90;;;;;;5088276;28;20048;-57
2021/08/20 04:01:06;;;;;;;66.82;47.53;;;13.80;99.90;;;;;;5066406;28;20080;-58
2021/08/20 04:03:32;;;;;;;70.95;46.67;;;13.80;99.90;;;;;;5049467;28;20048;-58
2021/08/20 04:06:00;;;;;;;69.45;47.97;;;13.80;99.90;;;;;;5058803;28;20054;-58
2021/08/20 04:08:27;;;;;;;61.35;45.35;;;13.80;99.90;;;;;;5070140;28;20052;-58
2021/08/20 04:11:13;;;;;;;68.15;47.45;;;13.80;99.90;;;;;;5087842;28;20079;-56
2021/08/20 04:13:45;;;;;;;64.55;45.83;;;13.80;99.90;;;;;;5077127;28;20093;-58
2021/08/20 04:16:11;;;;;;;60.95;44.20;;;13.80;99.90;;;;;;5070274;28;20412;-58
2021/08/20 04:18:41;;;;;;;62.67;46.50;;;13.80;99.90;;;;;;5069551;28;20067;-58
2021/08/20 04:21:08;;;;;;;59.13;43.78;;;13.90;99.90;;;;;;5069949;28;20047;-58
2021/08/20 04:23:36;;;;;;;62.92;45.60;;;13.80;99.90;;;;;;5076951;28;20051;-58
2021/08/20 04:26:06;;;;;;;56.60;42.90;;;13.90;99.90;;;;;;5070821;28;20186;-58
2021/08/20 04:28:53;;;;;;;55.72;42.30;;;13.90;99.90;;;;;;5088480;28;20048;-59
2021/08/20 04:31:45;;;;;;;;;;;13.90;99.90;;;;;;5024399;28;20088;-58
2021/08/20 04:34:47;;;;;;;57.70;43.88;;;14.00;99.90;;;;;;5025193;28;20377;-59
2021/08/20 04:37:23;;;;;;;59.58;43.28;;;13.90;99.90;;;;;;5025325;28;20127;-59
2021/08/20 04:40:12;;;;;;;59.17;44.50;;;14.00;99.90;;;;;;5027914;28;20095;-57
2021/08/20 04:42:58;;;;;;;67.03;45.35;;;14.00;99.90;;;;;;5020479;28;20422;-58
2021/08/20 04:45:50;;;;;;;;;;;14.00;99.90;;;;;;5005441;28;20883;-58
2021/08/20 04:48:35;;;;;;;59.80;43.08;;;14.00;99.90;;;;;;4992740;28;19925;-58
2021/08/20 04:51:33;;;;;;;58.60;44.47;;;14.00;99.90;;;;;;4992570;28;20061;-58
2021/08/20 04:54:37;;;;;;;55.28;43.38;;;14.00;99.90;;;;;;4931845;29;20571;-58
2021/08/20 04:57:09;;;;;;;62.45;45.40;;;14.00;99.90;;;;;;4950370;28;20098;-59
2021/08/20 04:59:37;;;;;;;59.50;44.95;;;14.10;99.90;;;;;;4950684;29;20063;-59
2021/08/20 05:02:04;;;;;;;54.78;43.72;;;14.00;99.90;;;;;;4924982;29;20570;-59
2021/08/20 05:04:33;;;;;;;55.13;43.28;;;14.00;99.90;;;;;;4936327;29;20051;-59
2021/08/20 05:07:00;;;;;;;55.45;42.00;;;14.00;99.90;;;;;;4931319;29;20147;-59
2021/08/20 05:09:29;;;;;;;54.03;42.95;;;14.00;99.90;;;;;;4964032;28;20495;-59
2021/08/20 05:11:55;;;;;;;63.17;44.47;;;14.00;99.90;;;;;;4972997;28;20082;-59
2021/08/20 05:14:21;;;;;;;55.08;42.05;;;13.90;99.90;;;;;;4976558;28;20121;-58
2021/08/20 05:16:51;;;;;;;63.55;43.25;;;13.90;99.90;;;;;;4988672;28;20057;-59
2021/08/20 05:19:17;;;;;;;52.53;41.95;;;14.00;99.90;;;;;;4993015;28;20084;-58
2021/08/20 05:21:43;;;;;;;59.30;43.05;;;14.00;99.90;;;;;;4991201;28;20062;-57
2021/08/20 05:24:10;;;;;;;55.45;40.33;;;14.00;99.90;;;;;;5011086;28;20053;-57
2021/08/20 05:26:37;;;;;;;55.67;40.72;;;14.00;99.90;;;;;;5016310;28;20081;-58
2021/08/20 05:29:03;;;;;;;53.30;40.05;;;14.10;99.90;;;;;;5022869;28;20053;-58
2021/08/20 05:31:30;;;;;;;53.45;41.03;;;14.00;99.90;;;;;;5075969;28;20125;-57
2021/08/20 05:33:56;;;;;;;52.17;38.13;;;14.10;99.90;;;;;;5079536;28;20059;-57
2021/08/20 05:36:25;;;;;;;52.55;40.75;;;14.10;99.90;;;;;;5090817;28;20044;-58
2021/08/20 05:38:51;;;;;;;61.47;39.92;;;14.10;99.90;;;;;;5083022;28;20481;-57
2021/08/20 05:41:17;;;;;;;50.97;38.35;;;14.10;99.90;;;;;;5090346;28;20139;-58
2021/08/20 05:43:43;;;;;;;51.13;38.55;;;14.20;99.90;;;;;;5090316;28;20052;-58
2021/08/20 05:46:10;;;;;;;56.10;37.88;;;14.20;99.90;;;;;;5090299;28;20051;-58
2021/08/20 05:48:36;;;;;;;49.72;38.65;;;14.20;99.90;;;;;;5072729;28;20051;-57
2021/08/20 05:51:02;;;;;;;52.83;39.08;;;14.20;99.90;;;;;;5091733;28;20068;-58
2021/08/20 05:53:29;;;;;;;49.67;38.97;;;14.10;99.90;;;;;;5094052;28;20040;-59
2021/08/20 05:55:56;;;;;;;50.15;39.55;;;14.20;99.90;;;;;;5090289;28;20048;-59
2021/08/20 05:58:22;;;;;;;47.20;37.15;;;14.20;99.90;;;;;;5088260;28;20048;-58
2021/08/20 06:00:49;;;;;;;48.58;39.67;;;14.30;99.90;;;;;;5090463;28;20135;-58
2021/08/20 06:03:25;;;;;;;47.15;36.80;;;14.50;99.90;;;;;;5072575;28;20044;-57
2021/08/20 06:05:54;;;;;;;46.35;38.10;;;14.70;99.90;;;;;;5070804;28;20048;-58
2021/08/20 06:08:22;;;;;;;38.90;34.60;;;14.90;99.90;;;;;;5055473;28;20400;-58
2021/08/20 06:10:49;;;;;;;42.67;35.88;;;15.00;99.90;;;;;;5090250;28;20050;-59
2021/08/20 06:13:15;;;;;;;51.30;45.13;;;15.20;99.90;;;;;;5068351;28;20059;-59
2021/08/20 06:15:47;;;;;;;43.92;38.03;;;15.40;99.90;;;;;;5090265;28;20047;-58
2021/08/20 06:18:13;;;;;;;39.45;34.05;;;15.40;99.90;;;;;;5089936;28;20138;-58
2021/08/20 06:20:40;;;;;;;44.70;37.17;;;15.50;99.90;;;;;;5089843;28;20078;-57
2021/08/20 06:23:06;;;;;;;53.95;45.28;;;15.60;99.90;;;;;;5072020;28;20105;-56
2021/08/20 06:25:32;;;;;;;45.42;37.00;;;15.60;99.90;;;;;;5068416;28;20048;-57
2021/08/20 06:27:58;;;;;;;43.08;35.15;;;15.70;99.90;;;;;;5070769;28;20052;-56
2021/08/20 06:30:25;;;;;;;49.15;37.42;;;15.70;99.90;;;;;;5051101;28;20113;-56
2021/08/20 06:32:51;;;;;;;45.15;38.17;;;15.80;99.90;;;;;;5074299;28;20055;-56
2021/08/20 06:35:17;;;;;;;48.38;37.70;;;15.80;99.90;;;;;;5071206;28;20052;-56
2021/08/20 06:37:44;;;;;;;46.22;38.42;;;15.80;99.90;;;;;;5096703;28;20476;-56
2021/08/20 06:40:13;;;;;;;53.05;37.00;;;15.70;99.90;;;;;;5088689;28;20131;-59
2021/08/20 06:42:43;;;;;;;67.45;57.03;;;15.70;99.90;;;;;;5087473;28;20052;-56
2021/08/20 06:45:09;;;;;;;51.53;41.60;;;15.80;99.90;;;;;;5089233;28;20139;-57
2021/08/20 06:47:36;;;;;;;54.33;45.40;;;15.90;99.90;;;;;;5071660;28;20059;-56
2021/08/20 06:50:03;;;;;;;54.15;42.55;;;15.90;99.90;;;;;;5071408;28;20056;-57
2021/08/20 06:52:29;;;;;;;53.40;38.33;;;16.00;99.90;;;;;;5070865;28;20052;-56
2021/08/20 06:54:58;;;;;;;48.17;38.10;;;16.10;99.90;;;;;;5091705;28;20415;-56
2021/08/20 06:57:25;;;;;;;46.60;38.08;;;16.20;99.90;;;;;;5070796;28;20516;-56
2021/08/20 06:59:51;;;;;;;46.45;39.15;;;16.30;99.90;;;;;;5088641;28;20055;-55
2021/08/20 07:02:17;;;;;;;40.17;35.40;;;16.50;99.90;;;;;;5086762;28;20048;-57
2021/08/20 07:04:44;;;;;;;39.35;34.97;;;16.60;99.90;;;;;;5087219;28;20550;-56
2021/08/20 07:07:10;;;;;;;38.00;33.33;;;16.70;99.90;;;;;;5086273;28;20055;-57
2021/08/20 07:09:37;;;;;;;45.63;37.75;;;16.80;99.90;;;;;;5087550;28;20044;-57
2021/08/20 07:12:03;;;;;;;40.75;33.90;;;17.00;99.90;;;;;;5092642;28;20472;-57
2021/08/20 07:14:30;;;;;;;37.78;32.90;;;17.00;99.90;;;;;;5060884;28;20047;-56
2021/08/20 07:16:56;;;;;;;38.70;34.72;;;17.20;99.90;;;;;;5088292;28;20186;-57
2021/08/20 07:19:23;;;;;;;39.15;35.05;;;17.40;99.90;;;;;;5087649;28;20503;-57
2021/08/20 07:21:49;;;;;;;42.13;37.85;;;17.80;99.90;;;;;;5089746;28;20590;-57
2021/08/20 07:24:18;;;;;;;38.28;34.10;;;18.00;99.90;;;;;;5084794;28;20101;-56
2021/08/20 07:26:50;;;;;;;38.33;33.03;;;18.10;99.90;;;;;;5088575;28;20066;-58
2021/08/20 07:29:16;;;;;;;37.90;33.58;;;18.00;99.90;;;;;;5089674;28;20036;-57
2021/08/20 07:31:45;;;;;;;39.05;34.90;;;17.90;99.90;;;;;;5088137;28;20559;-57
2021/08/20 07:34:14;;;;;;;38.65;34.88;;;17.70;99.90;;;;;;5087972;28;20416;-58
2021/08/20 07:36:40;;;;;;;36.92;33.00;;;17.50;99.90;;;;;;5083986;28;20059;-57
2021/08/20 07:39:06;;;;;;;38.60;34.47;;;17.40;99.90;;;;;;5088845;28;20044;-57
2021/08/20 07:41:35;;;;;;;44.00;37.47;;;17.40;99.90;;;;;;5088839;28;20565;-56
2021/08/20 07:44:04;;;;;;;40.33;35.60;;;17.40;99.90;;;;;;5083066;28;20101;-55
2021/08/20 07:46:30;;;;;;;43.75;35.03;;;17.30;99.90;;;;;;5043895;28;20737;-57
2021/08/20 07:48:57;;;;;;;40.97;34.92;;;17.40;99.90;;;;;;5081520;28;20044;-56
2021/08/20 07:51:23;;;;;;;41.50;34.92;;;17.30;99.90;;;;;;5078898;28;20078;-57
2021/08/20 07:53:49;;;;;;;43.00;35.95;;;17.20;99.90;;;;;;5082486;28;20121;-57
2021/08/20 07:56:16;;;;;;;43.55;36.30;;;17.20;99.90;;;;;;5085983;28;20052;-56
2021/08/20 07:58:42;;;;;;;44.65;36.22;;;17.10;99.90;;;;;;5068918;28;20051;-55
2021/08/20 08:01:10;;;;;;;43.20;37.35;;;17.20;99.90;;;;;;5087826;28;20071;-57
2021/08/20 08:03:37;;;;;;;44.88;39.22;;;17.20;99.90;;;;;;5088087;28;20460;-56
2021/08/20 08:06:04;;;;;;;43.42;37.67;;;17.30;99.90;;;;;;5087391;28;20135;-55
2021/08/20 08:08:30;;;;;;;44.10;38.10;;;17.40;99.90;;;;;;5069637;28;20101;-55
2021/08/20 08:10:57;;;;;;;44.67;38.33;;;17.30;99.90;;;;;;5091582;28;20040;-56
2021/08/20 08:13:23;;;;;;;46.35;38.83;;;17.30;99.90;;;;;;5087139;28;20082;-56
2021/08/20 08:15:51;;;;;;;49.58;39.33;;;17.30;99.90;;;;;;5086624;28;20117;-54
2021/08/20 08:18:18;;;;;;;43.10;37.65;;;17.30;99.90;;;;;;5080491;28;20049;-54
2021/08/20 08:20:45;;;;;;;45.22;39.45;;;17.50;99.90;;;;;;5087865;28;20533;-57
2021/08/20 08:23:11;;;;;;;42.13;37.58;;;17.40;99.90;;;;;;5094878;28;20069;-57
2021/08/20 08:25:37;;;;;;;42.00;36.65;;;17.40;99.90;;;;;;5090052;28;20100;-57
2021/08/20 08:28:04;;;;;;;42.88;38.38;;;17.50;99.90;;;;;;5092359;28;20100;-56
2021/08/20 08:30:38;;;;;;;48.15;39.40;;;17.60;99.90;;;;;;5085214;28;20059;-56
2021/08/20 08:33:06;;;;;;;45.67;39.38;;;17.70;99.90;;;;;;5077333;28;20060;-57
2021/08/20 08:35:32;;;;;;;41.20;36.70;;;17.80;99.90;;;;;;5074460;28;20049;-57
2021/08/20 08:38:06;;;;;;;39.97;34.95;;;17.80;99.90;;;;;;5095159;28;20086;-57
2021/08/20 08:40:38;;;;;;;40.28;33.40;;;17.80;99.90;;;;;;5092457;28;20048;-56
2021/08/20 08:43:07;;;;;;;40.13;34.45;;;17.90;99.90;;;;;;5090126;28;20075;-55
2021/08/20 08:45:35;;;;;;;41.42;36.63;;;17.90;99.90;;;;;;5089386;28;20048;-53
2021/08/20 08:52:22;;;;;;;39.17;34.90;;;18.00;99.90;;;;;;4965260;23;20070;-54
2021/08/20 08:54:48;;;;;;;39.22;34.72;;;18.10;99.90;;;;;;4963424;28;20074;-56
2021/08/20 08:57:16;;;;;;;36.80;32.53;;;18.20;99.90;;;;;;4968957;28;20058;-55
2021/08/20 09:03:00;;;;;;;35.83;31.92;;;18.20;99.90;;;;;;4958907;28;20070;-56
2021/08/20 09:05:41;;;;;;;36.78;32.85;;;18.40;99.90;;;;;;4958636;28;20059;-55
2021/08/20 09:08:14;;;;;;;39.40;34.25;;;18.30;99.90;;;;;;4971914;28;20050;-56
2021/08/20 09:11:27;;;;;;;38.80;34.60;;;18.30;99.90;;;;;;4971240;28;20050;-55
2021/08/20 09:13:53;;;;;;;38.67;33.63;;;18.40;99.90;;;;;;4888406;29;20191;-53
2021/08/20 09:16:19;;;;;;;37.65;33.20;;;18.30;99.90;;;;;;4881372;29;20048;-54
2021/08/20 09:18:45;;;;;;;39.08;32.58;;;18.60;99.90;;;;;;4894275;29;20059;-56
2021/08/20 09:21:15;;;;;;;36.60;32.55;;;18.60;99.90;;;;;;4891444;29;20626;-57
2021/08/20 09:23:41;;;;;;;37.97;33.72;;;18.60;99.90;;;;;;4899749;29;20060;-56
2021/08/20 09:26:08;;;;;;;35.22;31.52;;;18.60;99.90;;;;;;4895228;29;20087;-55
2021/08/20 09:28:35;;;;;;;37.92;33.25;;;18.60;99.90;;;;;;4901019;29;20433;-55
2021/08/20 09:31:15;;;;;;;37.80;33.63;;;18.70;99.90;;;;;;4899919;29;20578;-56
2021/08/20 09:33:44;;;;;;;38.17;32.92;;;18.80;99.90;;;;;;4891443;29;20091;-55
2021/08/20 09:36:12;;;;;;;36.33;32.47;;;18.90;99.90;;;;;;4897368;29;20584;-55
2021/08/20 09:38:42;;;;;;;39.47;34.88;;;19.00;99.90;;;;;;4897898;29;20425;-55
2021/08/20 09:41:20;;;;;;;33.65;30.15;;;19.30;99.90;;;;;;4893784;29;20139;-53
2021/08/20 09:43:48;;;;;;;47.90;42.80;;;19.50;99.90;;;;;;4891596;29;20131;-56
2021/08/20 09:46:23;;;;;;;36.30;32.42;;;19.60;99.90;;;;;;4896852;29;20048;-55
2021/08/20 09:49:05;;;;;;;35.40;31.77;;;19.90;99.90;;;;;;4921447;28;20047;-55
2021/08/20 09:51:37;;;;;;;33.88;29.65;;;20.00;99.90;;;;;;4970111;28;20047;-55
2021/08/20 09:54:10;;;;;;;33.28;29.63;;;20.00;99.90;;;;;;4979663;28;20503;-54
2021/08/20 09:56:37;;;;;;;31.60;28.23;;;20.00;99.90;;;;;;4977528;28;20057;-55
2021/08/20 09:59:06;;;;;;;30.77;27.55;;;19.90;99.90;;;;;;4969057;28;20508;-57
2021/08/20 10:01:35;;;;;;;33.00;29.70;;;20.00;99.90;;;;;;4966359;28;20043;-57
2021/08/20 10:04:07;;;;;;;29.05;26.15;;;20.00;99.90;;;;;;4962743;28;20061;-57
2021/08/20 10:06:46;;;;;;;;;;;20.00;99.90;;;;;;4960475;28;20055;-54
2021/08/20 10:09:18;;;;;;;27.92;24.98;;;20.10;99.90;;;;;;4962305;28;19922;-55
2021/08/20 10:11:49;;;;;;;29.10;26.02;;;20.20;99.90;;;;;;4953475;28;20511;-54
2021/08/20 10:14:17;;;;;;;24.83;22.52;;;20.10;99.90;;;;;;4947765;29;20666;-53
2021/08/20 10:16:43;;;;;;;29.10;26.15;;;20.10;99.90;;;;;;4945951;29;20098;-55
2021/08/20 10:19:10;;;;;;;27.83;25.00;;;20.40;99.90;;;;;;4951257;28;20066;-55
2021/08/20 10:21:40;;;;;;;26.83;24.05;;;20.70;99.90;;;;;;4962490;28;20039;-55
2021/08/20 10:24:07;;;;;;;26.73;24.00;;;20.80;99.90;;;;;;4965076;28;20158;-55
2021/08/20 10:26:38;;;;;;;26.15;23.67;;;20.80;99.90;;;;;;4975112;28;20491;-55
2021/08/20 10:29:05;;;;;;;27.33;24.27;;;20.70;99.90;;;;;;4981973;28;20136;-54
2021/08/20 10:31:33;;;;;;;25.15;22.73;;;20.50;99.90;;;;;;4983189;28;20312;-53
2021/08/20 10:34:31;;;;;;;26.17;23.65;;;20.40;99.90;;;;;;4961785;28;20507;-51
2021/08/20 10:37:11;;;;;;;26.00;23.40;;;20.20;99.90;;;;;;4976941;28;20066;-56
2021/08/20 10:39:46;;;;;;;27.17;24.58;;;20.00;99.90;;;;;;4962404;28;20141;-43
2021/08/20 10:42:18;;;;;;;29.95;26.83;;;20.00;99.90;;;;;;4968430;28;20082;-52
2021/08/20 10:44:47;;;;;;;29.38;26.50;;;20.00;99.90;;;;;;4969098;28;20051;-56
2021/08/20 10:47:27;;;;;;;25.75;23.27;;;20.00;99.90;;;;;;4951521;28;20463;-56
2021/08/20 10:50:10;;;;;;;25.58;23.00;;;20.20;99.90;;;;;;4959762;28;20046;-56
2021/08/20 10:52:42;;;;;;;25.70;23.20;;;20.20;99.90;;;;;;4962116;28;20193;-54
2021/08/20 10:55:09;;;;;;;25.05;22.58;;;20.30;99.90;;;;;;4967854;28;20133;-52
2021/08/20 10:58:04;;;;;;;24.92;22.38;;;20.50;99.90;;;;;;4968949;28;20046;-51
2021/08/20 11:00:35;;;;;;;23.92;21.63;;;20.70;99.90;;;;;;4950048;28;20058;-54
2021/08/20 11:03:08;;;;;;;20.13;18.15;;;20.90;99.90;;;;;;4971111;28;20057;-53
2021/08/20 11:05:57;;;;;;;18.83;16.77;;;21.30;99.90;;;;;;4946901;28;20054;-53
2021/08/20 11:08:30;;;;;;;17.05;15.35;;;21.60;99.90;;;;;;4941813;28;20043;-54
2021/08/20 11:11:01;;;;;;;16.50;14.80;;;21.50;99.90;;;;;;4958716;28;20049;-52
2021/08/20 11:13:28;;;;;;;17.67;14.68;;;21.70;99.90;;;;;;4959347;28;20050;-54
2021/08/20 11:15:55;;;;;;;17.20;15.43;;;21.60;99.90;;;;;;4944955;28;20190;-53
2021/08/20 11:18:45;;;;;;;17.05;15.38;;;21.50;99.90;;;;;;4974746;28;20396;-53
2021/08/20 11:21:46;;;;;;;18.35;16.48;;;21.50;99.90;;;;;;4959367;28;20071;-51
2021/08/20 11:24:20;;;;;;;16.05;14.35;;;21.40;99.90;;;;;;4953875;28;20903;-52
2021/08/20 11:26:49;;;;;;;15.52;13.57;;;21.50;99.90;;;;;;4956156;28;20567;-53
2021/08/20 11:29:19;;;;;;;17.58;14.88;;;22.20;99.90;;;;;;4962905;28;20049;-53
2021/08/20 11:31:48;;;;;;;17.85;16.15;;;22.70;99.90;;;;;;4958303;28;20047;-50
2021/08/20 11:34:15;;;;;;;16.27;14.57;;;23.00;99.90;;;;;;4962813;28;20180;-54
2021/08/20 11:36:43;;;;;;;15.77;14.23;;;22.90;99.90;;;;;;4960612;28;20057;-53
2021/08/20 11:39:13;;;;;;;15.20;13.23;;;23.00;99.90;;;;;;4976487;28;20145;-51
2021/08/20 11:41:44;;;;;;;15.05;13.63;;;22.70;99.90;;;;;;4969158;28;20097;-50
2021/08/20 11:44:14;;;;;;;14.63;13.13;;;22.40;99.90;;;;;;4959879;28;20051;-51
2021/08/20 11:46:50;;;;;;;15.00;13.52;;;22.20;99.90;;;;;;4967661;28;20459;-50
2021/08/20 11:49:31;;;;;;;17.95;14.95;;;22.20;99.90;;;;;;4958151;28;20134;-51
2021/08/20 11:52:11;;;;;;;;;;;22.20;99.90;;;;;;4966807;28;20133;-50
2021/08/20 11:54:40;;;;;;;17.40;15.57;;;22.00;99.90;;;;;;4964949;28;20371;-49
2021/08/20 11:57:09;;;;;;;17.08;15.52;;;21.80;99.90;;;;;;4967039;28;20047;-49
2021/08/20 11:59:37;;;;;;;16.83;15.15;;;21.80;99.90;;;;;;4958959;28;20048;-50
2021/08/20 12:02:20;;;;;;;18.08;16.30;;;21.70;99.90;;;;;;4968206;28;20051;-50
2021/08/20 12:04:49;;;;;;;17.48;15.48;;;21.50;99.90;;;;;;4972517;28;20135;-49
2021/08/20 12:07:36;;;;;;;19.10;17.08;;;21.40;99.90;;;;;;4964960;28;20751;-50
2021/08/20 12:10:05;;;;;;;18.25;16.38;;;21.30;99.90;;;;;;4968515;28;20049;-50
2021/08/20 12:12:34;;;;;;;18.88;16.58;;;21.20;99.90;;;;;;4957127;28;20526;-51
2021/08/20 12:15:08;;;;;;;19.10;17.08;;;21.10;99.90;;;;;;4954638;28;20062;-48
2021/08/20 12:17:38;;;;;;;17.52;15.75;;;21.20;99.90;;;;;;4958125;28;20138;-48
2021/08/20 12:20:25;;;;;;;17.27;15.52;;;21.30;99.90;;;;;;4954271;28;20061;-50
2021/08/20 12:23:01;;;;;;;15.18;12.90;;;21.20;99.90;;;;;;4965275;28;20046;-49
2021/08/20 12:25:28;;;;;;;18.35;16.20;;;21.20;99.90;;;;;;4958520;28;20042;-48
2021/08/20 12:27:57;;;;;;;13.75;12.07;;;21.10;99.90;;;;;;4955577;28;20066;-48
2021/08/20 12:30:25;;;;;;;13.93;11.35;;;21.10;99.90;;;;;;4955797;28;20086;-47
2021/08/20 12:32:58;;;;;;;12.82;11.52;;;20.90;99.90;;;;;;4956181;28;20051;-46
2021/08/20 12:35:26;;;;;;;13.70;12.10;;;20.80;99.90;;;;;;4957269;28;20737;-45
2021/08/20 12:38:20;;;;;;;16.17;12.80;;;20.70;99.90;;;;;;4957610;28;20051;-46
2021/08/20 12:40:55;;;;;;;14.52;12.00;;;20.60;99.90;;;;;;4957986;28;20051;-48
2021/08/20 12:43:36;;;;;;;13.70;12.30;;;20.60;99.90;;;;;;4960754;28;20472;-45
2021/08/20 12:46:18;;;;;;;14.15;11.55;;;20.50;99.90;;;;;;4958513;28;20082;-44
2021/08/20 12:48:55;;;;;;;14.75;13.05;;;20.40;99.90;;;;;;4960141;28;20058;-46
2021/08/20 12:51:21;;;;;;;15.60;13.60;;;20.40;99.90;;;;;;4964626;28;20058;-57